createdAt,value
2022-11-30T00:02:41.472Z,71.93
2022-11-30T00:05:44.533Z,63.57
2022-11-30T00:08:48.826Z,68.60
2022-11-30T00:11:51.682Z,57.43
2022-11-30T00:14:54.656Z,69.63
2022-11-30T00:17:58.046Z,63.73
2022-11-30T00:21:01.951Z,68.60
2022-11-30T00:24:07.026Z,68.57
2022-11-30T00:27:09.907Z,66.67
2022-11-30T00:30:14.297Z,67.63
2022-11-30T00:33:17.174Z,65.77
2022-11-30T00:36:21.915Z,67.07
2022-11-30T00:39:28.701Z,68.20
2022-11-30T00:42:35.339Z,66.63
2022-11-30T00:45:38.226Z,69.43
2022-11-30T00:48:42.439Z,60.03
2022-11-30T00:51:45.398Z,68.20
2022-11-30T00:54:49.703Z,71.50
2022-11-30T00:57:52.681Z,67.20
2022-11-30T01:00:55.628Z,65.00
2022-11-30T01:03:58.680Z,66.23
2022-11-30T01:07:01.611Z,65.60
2022-11-30T01:10:07.041Z,67.47
2022-11-30T01:13:11.232Z,69.23
2022-11-30T01:16:16.649Z,70.47
2022-11-30T01:19:19.625Z,69.40
2022-11-30T01:22:22.596Z,73.60
2022-11-30T01:25:26.859Z,64.90
2022-11-30T01:28:29.859Z,70.50
2022-11-30T01:31:32.759Z,68.00
2022-11-30T01:34:35.702Z,72.27
2022-11-30T01:37:38.650Z,69.47
2022-11-30T01:40:51.032Z,71.43
2022-11-30T01:43:56.507Z,69.70
2022-11-30T01:47:01.776Z,75.67
2022-11-30T01:50:09.506Z,70.00
2022-11-30T01:53:12.506Z,72.13
2022-11-30T01:56:18.077Z,70.90
2022-11-30T01:59:22.987Z,70.83
2022-11-30T02:02:31.734Z,70.70
2022-11-30T02:05:37.077Z,67.77
2022-11-30T02:08:40.248Z,71.13
2022-11-30T02:11:44.873Z,68.63
2022-11-30T02:14:52.034Z,66.73
2022-11-30T02:18:00.281Z,72.67
2022-11-30T02:21:11.636Z,67.23
2022-11-30T02:24:31.595Z,75.23
2022-11-30T02:27:50.498Z,71.13
2022-11-30T02:30:55.940Z,71.43
2022-11-30T02:34:00.519Z,70.53
2022-11-30T02:37:05.922Z,68.93
2022-11-30T02:40:10.742Z,66.13
2022-11-30T02:43:13.861Z,71.33
2022-11-30T02:46:24.327Z,70.13
2022-11-30T02:49:34.376Z,70.03
2022-11-30T02:52:37.505Z,67.00
2022-11-30T02:55:40.746Z,70.13
2022-11-30T02:58:43.783Z,71.13
2022-11-30T03:01:48.197Z,73.07
2022-11-30T03:04:51.153Z,67.77
2022-11-30T03:07:54.127Z,75.67
2022-11-30T03:10:57.092Z,66.00
2022-11-30T03:14:00.083Z,67.97
2022-11-30T03:17:05.581Z,69.97
2022-11-30T03:20:09.754Z,73.03
2022-11-30T03:23:12.644Z,69.37
2022-11-30T03:26:15.658Z,74.77
2022-11-30T03:29:18.583Z,68.77
2022-11-30T03:32:22.964Z,68.07
2022-11-30T03:35:25.815Z,66.83
2022-11-30T03:38:28.966Z,67.17
2022-11-30T03:41:31.874Z,64.57
2022-11-30T03:44:34.872Z,69.50
2022-11-30T03:47:39.615Z,74.67
2022-11-30T03:50:49.501Z,71.47
2022-11-30T03:53:52.395Z,69.17
2022-11-30T03:56:55.348Z,70.23
2022-11-30T03:59:58.290Z,67.13
2022-11-30T04:03:02.621Z,66.33
2022-11-30T04:06:07.036Z,75.10
2022-11-30T04:09:10.875Z,68.47
2022-11-30T04:12:13.753Z,71.87
2022-11-30T04:15:16.762Z,69.47
2022-11-30T04:18:22.580Z,71.60
2022-11-30T04:21:25.447Z,68.53
2022-11-30T04:24:28.359Z,72.37
2022-11-30T04:27:31.294Z,71.97
2022-11-30T04:30:34.953Z,70.47
2022-11-30T04:33:39.254Z,75.03
2022-11-30T04:36:42.216Z,71.17
2022-11-30T04:39:45.278Z,70.80
2022-11-30T04:42:48.211Z,75.40
2022-11-30T04:45:51.717Z,71.07
2022-11-30T04:48:55.988Z,72.80
2022-11-30T04:51:58.969Z,70.30
2022-11-30T04:55:01.905Z,74.43
2022-11-30T04:58:04.985Z,72.50
2022-11-30T05:01:08.632Z,70.30
2022-11-30T05:04:12.994Z,71.63
2022-11-30T05:07:16.148Z,68.70
2022-11-30T05:10:19.288Z,76.03
2022-11-30T05:13:23.059Z,70.80
2022-11-30T05:16:26.112Z,74.13
2022-11-30T05:19:30.408Z,75.93
2022-11-30T05:22:34.898Z,69.80
2022-11-30T05:25:37.797Z,72.53
2022-11-30T05:28:40.679Z,74.03
2022-11-30T05:31:43.662Z,72.63
2022-11-30T05:34:51.106Z,75.17
2022-11-30T05:37:54.620Z,72.53
2022-11-30T05:41:01.545Z,71.17
2022-11-30T05:44:04.485Z,66.30
2022-11-30T05:47:07.588Z,73.93
2022-11-30T05:50:12.413Z,80.70
2022-11-30T05:53:15.291Z,76.43
2022-11-30T05:56:20.931Z,74.00
2022-11-30T05:59:24.271Z,72.07
2022-11-30T06:02:28.448Z,72.27
2022-11-30T06:05:36.284Z,71.77
2022-11-30T06:08:39.326Z,73.60
2022-11-30T06:11:42.348Z,73.97
2022-11-30T06:14:45.619Z,69.93
2022-11-30T06:17:48.695Z,73.43
2022-11-30T06:20:52.983Z,67.70
2022-11-30T06:23:55.961Z,66.90
2022-11-30T06:26:58.866Z,72.10
2022-11-30T06:30:01.753Z,70.93
2022-11-30T06:33:04.972Z,70.93
2022-11-30T06:36:10.051Z,71.30
2022-11-30T06:39:13.816Z,70.73
2022-11-30T06:42:19.597Z,68.60
2022-11-30T06:45:22.525Z,70.50
2022-11-30T06:48:25.388Z,66.83
2022-11-30T06:51:29.710Z,69.93
2022-11-30T06:54:32.639Z,69.47
2022-11-30T06:57:35.998Z,65.90
2022-11-30T07:00:39.501Z,65.03
2022-11-30T07:03:43.485Z,65.27
2022-11-30T07:06:47.805Z,70.43
2022-11-30T07:09:52.064Z,69.57
2022-11-30T07:12:55.156Z,73.63
2022-11-30T07:15:58.262Z,66.17
2022-11-30T07:19:01.190Z,69.83
2022-11-30T07:22:05.723Z,69.73
2022-11-30T07:25:27.436Z,67.33
2022-11-30T07:28:30.303Z,66.97
2022-11-30T07:31:35.196Z,68.07
2022-11-30T07:34:38.154Z,71.93
2022-11-30T07:37:42.378Z,67.97
2022-11-30T07:40:45.336Z,69.23
2022-11-30T07:43:48.316Z,68.07
2022-11-30T07:46:51.593Z,69.87
2022-11-30T07:49:54.436Z,68.03
2022-11-30T07:52:59.444Z,68.10
2022-11-30T07:56:06.364Z,61.27
2022-11-30T07:59:10.637Z,63.37
2022-11-30T08:02:13.826Z,71.50
2022-11-30T08:05:16.940Z,66.67
2022-11-30T08:08:21.163Z,66.03
2022-11-30T08:11:25.720Z,70.33
2022-11-30T08:14:28.638Z,65.70
2022-11-30T08:17:31.562Z,73.50
2022-11-30T08:20:34.495Z,67.10
2022-11-30T08:23:40.821Z,72.60
2022-11-30T08:26:43.828Z,63.07
2022-11-30T08:29:46.811Z,72.47
2022-11-30T08:32:49.733Z,66.50
2022-11-30T08:35:52.704Z,70.37
2022-11-30T08:38:58.887Z,70.90
2022-11-30T08:42:02.169Z,66.50
2022-11-30T08:45:05.792Z,72.60
2022-11-30T08:48:08.700Z,69.17
2022-11-30T08:51:14.261Z,70.33
2022-11-30T08:54:18.565Z,71.03
2022-11-30T08:57:22.396Z,59.70
2022-11-30T09:00:25.454Z,70.53
2022-11-30T09:03:28.419Z,63.50
2022-11-30T09:06:31.875Z,66.87
2022-11-30T09:09:36.727Z,68.33
2022-11-30T09:12:41.640Z,65.97
2022-11-30T09:15:44.559Z,63.13
2022-11-30T09:18:48.208Z,60.93
2022-11-30T09:21:52.401Z,66.60
2022-11-30T09:24:57.053Z,63.93
2022-11-30T09:28:00.042Z,63.67
2022-11-30T09:31:03.634Z,64.40
2022-11-30T09:34:06.612Z,63.90
2022-11-30T09:37:09.917Z,61.83
2022-11-30T09:40:15.637Z,66.20
2022-11-30T09:43:31.712Z,62.50
2022-11-30T09:46:40.651Z,60.10
2022-11-30T09:49:45.906Z,65.23
2022-11-30T09:52:52.274Z,63.73
2022-11-30T09:55:57.734Z,60.37
2022-11-30T09:59:04.415Z,61.60
2022-11-30T10:02:17.048Z,61.10
2022-11-30T10:05:22.849Z,65.23
2022-11-30T10:08:51.109Z,64.27
2022-11-30T10:12:03.157Z,61.33
2022-11-30T10:15:27.260Z,64.87
2022-11-30T10:18:40.847Z,58.13
2022-11-30T10:21:55.581Z,61.37
2022-11-30T10:25:12.422Z,64.87
2022-11-30T10:28:45.762Z,57.37
2022-11-30T10:31:44.375Z,66.63
2022-11-30T10:34:50.209Z,61.53
2022-11-30T10:37:54.861Z,61.33
2022-11-30T10:41:03.522Z,66.63
2022-11-30T10:44:13.390Z,62.90
2022-11-30T10:47:21.709Z,60.23
2022-11-30T10:50:29.633Z,63.53
2022-11-30T10:53:33.249Z,62.70
2022-11-30T10:56:36.173Z,62.13
2022-11-30T10:59:46.128Z,60.70
2022-11-30T11:02:50.521Z,61.07
2022-11-30T11:06:11.766Z,57.10
2022-11-30T11:09:35.167Z,63.23
2022-11-30T11:12:38.533Z,63.93
2022-11-30T11:15:57.784Z,65.33
2022-11-30T11:19:00.727Z,60.47
2022-11-30T11:22:06.409Z,61.07
2022-11-30T11:25:12.822Z,60.37
2022-11-30T11:28:20.156Z,62.07
2022-11-30T11:31:36.206Z,60.07
2022-11-30T11:34:39.133Z,65.83
2022-11-30T11:37:52.835Z,60.20
2022-11-30T11:40:58.712Z,66.53
2022-11-30T11:44:04.784Z,59.63
2022-11-30T11:47:22.052Z,67.53
2022-11-30T11:53:59.808Z,71.70
2022-11-30T11:57:03.641Z,62.70
2022-11-30T12:00:16.072Z,65.40
2022-11-30T12:03:30.874Z,64.70
2022-11-30T12:06:35.624Z,60.60
2022-11-30T12:09:56.297Z,61.63
2022-11-30T12:13:00.524Z,67.13
2022-11-30T12:16:16.939Z,70.57
2022-11-30T12:19:25.650Z,65.87
2022-11-30T12:22:48.420Z,65.07
2022-11-30T12:25:58.795Z,66.97
2022-11-30T12:29:19.410Z,69.37
2022-11-30T12:32:35.870Z,68.83
2022-11-30T12:35:50.614Z,70.30
2022-11-30T12:38:58.959Z,70.37
2022-11-30T12:42:08.839Z,81.37
2022-11-30T12:45:20.482Z,69.53
2022-11-30T12:48:32.780Z,74.50
2022-11-30T12:51:41.901Z,76.10
2022-11-30T12:54:55.203Z,77.67
2022-11-30T12:58:05.539Z,76.70
2022-11-30T13:01:22.918Z,80.50
2022-11-30T13:04:31.429Z,77.30
2022-11-30T13:07:43.390Z,78.77
2022-11-30T13:10:50.405Z,74.00
2022-11-30T13:13:57.796Z,78.30
2022-11-30T13:17:03.610Z,79.60
2022-11-30T13:20:16.169Z,72.83
2022-11-30T13:23:31.383Z,73.47
2022-11-30T13:26:42.614Z,78.37
2022-11-30T13:30:08.170Z,75.43
2022-11-30T13:33:38.267Z,79.00
2022-11-30T13:36:43.480Z,79.80
2022-11-30T13:39:50.487Z,82.00
2022-11-30T13:42:56.731Z,77.00
2022-11-30T13:46:24.011Z,76.53
2022-11-30T13:49:31.161Z,82.20
2022-11-30T13:53:10.014Z,85.63
2022-11-30T13:56:34.781Z,80.47
2022-11-30T13:59:47.064Z,80.27
2022-11-30T14:02:54.817Z,85.37
2022-11-30T14:05:58.581Z,85.60
2022-11-30T14:09:01.475Z,85.47
2022-11-30T14:12:45.061Z,90.10
2022-11-30T14:15:57.684Z,89.90
2022-11-30T14:19:01.741Z,95.40
2022-11-30T14:22:05.252Z,89.43
2022-11-30T14:25:14.001Z,89.37
2022-11-30T14:28:22.480Z,93.73
2022-11-30T14:31:27.635Z,95.40
2022-11-30T14:34:36.681Z,97.93
2022-11-30T14:37:44.952Z,98.77
2022-11-30T14:40:51.766Z,98.60
2022-11-30T14:44:04.551Z,98.00
2022-11-30T14:47:15.332Z,104.43
2022-11-30T14:50:24.365Z,105.20
2022-11-30T14:53:36.702Z,110.33
2022-11-30T14:56:46.793Z,105.30
2022-11-30T14:59:53.698Z,108.63
2022-11-30T15:02:57.202Z,105.23
2022-11-30T15:06:02.066Z,97.93
2022-11-30T15:09:05.742Z,100.50
2022-11-30T15:12:08.835Z,91.40
2022-11-30T15:15:19.003Z,103.03
2022-11-30T15:18:23.279Z,100.17
2022-11-30T15:21:28.205Z,98.33
2022-11-30T15:24:31.745Z,96.33
2022-11-30T15:27:34.748Z,100.77
2022-11-30T15:30:42.482Z,101.40
2022-11-30T15:33:47.961Z,105.70
2022-11-30T15:36:54.087Z,109.40
2022-11-30T15:39:59.748Z,102.00
2022-11-30T15:43:03.349Z,108.27
2022-11-30T15:46:08.481Z,101.00
2022-11-30T15:49:24.405Z,107.20
2022-11-30T15:52:29.166Z,97.50
2022-11-30T15:55:43.395Z,100.33
2022-11-30T15:59:01.920Z,96.13
2022-11-30T16:02:08.751Z,92.37
2022-11-30T16:05:26.814Z,99.17
2022-11-30T16:08:30.380Z,96.40
2022-11-30T16:11:35.526Z,98.27
2022-11-30T16:14:38.515Z,103.07
2022-11-30T16:17:42.827Z,102.93
2022-11-30T16:20:47.418Z,102.50
2022-11-30T16:23:50.423Z,101.67
2022-11-30T16:26:53.371Z,110.00
2022-11-30T16:29:56.544Z,98.70
2022-11-30T16:33:00.944Z,103.37
2022-11-30T16:36:07.851Z,108.73
2022-11-30T16:39:13.292Z,97.17
2022-11-30T16:42:16.339Z,104.03
2022-11-30T16:45:22.499Z,96.00
2022-11-30T16:48:28.369Z,102.73
2022-11-30T16:51:34.497Z,101.77
2022-11-30T16:54:37.443Z,104.00
2022-11-30T16:57:40.351Z,103.80
2022-11-30T17:00:43.722Z,96.23
2022-11-30T17:03:51.300Z,96.90
2022-11-30T17:07:00.554Z,102.37
2022-11-30T17:10:06.102Z,100.03
2022-11-30T17:13:13.370Z,87.40
2022-11-30T17:16:16.492Z,99.00
2022-11-30T17:19:21.013Z,96.53
2022-11-30T17:22:24.001Z,99.10
2022-11-30T17:25:27.037Z,96.03
2022-11-30T17:28:29.932Z,96.30
2022-11-30T17:31:33.430Z,97.43
2022-11-30T17:34:37.818Z,97.27
2022-11-30T17:37:40.904Z,96.20
2022-11-30T17:40:43.850Z,100.23
2022-11-30T17:43:46.802Z,96.87
2022-11-30T17:46:49.735Z,94.57
2022-11-30T17:49:54.011Z,101.47
2022-11-30T17:52:56.929Z,102.57
2022-11-30T17:56:03.486Z,97.53
2022-11-30T17:59:06.453Z,100.07
2022-11-30T18:02:11.403Z,100.97
2022-11-30T18:05:16.066Z,102.50
2022-11-30T18:08:19.307Z,104.13
2022-11-30T18:11:24.446Z,91.77
2022-11-30T18:14:27.526Z,94.40
2022-11-30T18:17:31.564Z,101.13
2022-11-30T18:20:35.886Z,101.37
2022-11-30T18:23:39.235Z,98.83
2022-11-30T18:26:42.475Z,100.13
2022-11-30T18:29:45.424Z,102.37
2022-11-30T18:32:48.378Z,96.50
2022-11-30T18:35:53.035Z,98.17
2022-11-30T18:38:56.279Z,102.37
2022-11-30T18:41:59.348Z,95.93
2022-11-30T18:45:02.346Z,94.10
2022-11-30T18:48:06.372Z,92.03
2022-11-30T18:51:15.571Z,88.83
2022-11-30T18:54:19.117Z,82.97
2022-11-30T18:57:22.078Z,94.23
2022-11-30T19:00:25.415Z,91.07
2022-11-30T19:03:28.300Z,86.60
2022-11-30T19:06:33.907Z,90.73
2022-11-30T19:09:36.901Z,97.27
2022-11-30T19:12:39.829Z,89.77
2022-11-30T19:15:43.296Z,88.80
2022-11-30T19:18:46.360Z,94.70
2022-11-30T19:21:50.716Z,90.43
2022-11-30T19:24:53.659Z,94.00
2022-11-30T19:27:56.631Z,87.93
2022-11-30T19:31:00.433Z,95.30
2022-11-30T19:34:12.044Z,95.23
2022-11-30T19:37:17.057Z,88.97
2022-11-30T19:40:20.232Z,93.03
2022-11-30T19:43:23.244Z,99.17
2022-11-30T19:46:26.868Z,93.17
2022-11-30T19:49:29.934Z,94.60
2022-11-30T19:52:34.195Z,94.80
2022-11-30T19:55:39.735Z,91.23
2022-11-30T19:58:43.763Z,86.97
2022-11-30T20:01:46.855Z,89.60
2022-11-30T20:04:50.059Z,94.20
2022-11-30T20:07:54.620Z,80.90
2022-11-30T20:10:57.564Z,87.13
2022-11-30T20:14:00.760Z,89.50
2022-11-30T20:17:03.762Z,89.33
2022-11-30T20:20:07.662Z,88.47
2022-11-30T20:23:11.941Z,90.87
2022-11-30T20:26:17.340Z,90.90
2022-11-30T20:29:20.250Z,94.57
2022-11-30T20:32:23.327Z,85.33
2022-11-30T20:35:26.268Z,80.70
2022-11-30T20:38:30.984Z,87.13
2022-11-30T20:41:34.652Z,95.03
2022-11-30T20:44:37.612Z,93.43
2022-11-30T20:47:40.532Z,85.43
2022-11-30T20:50:51.330Z,92.40
2022-11-30T20:54:08.442Z,84.77
2022-11-30T20:57:11.462Z,92.93
2022-11-30T21:00:15.602Z,86.13
2022-11-30T21:03:18.553Z,101.77
2022-11-30T21:06:21.513Z,86.40
2022-11-30T21:09:25.791Z,89.70
2022-11-30T21:12:28.698Z,92.70
2022-11-30T21:15:31.661Z,89.50
2022-11-30T21:18:34.865Z,95.03
2022-11-30T21:21:38.419Z,89.83
2022-11-30T21:24:42.682Z,79.40
2022-11-30T21:27:45.689Z,92.77
2022-11-30T21:30:48.674Z,89.03
2022-11-30T21:33:53.511Z,90.03
2022-11-30T21:36:56.890Z,98.30
2022-11-30T21:40:01.149Z,88.43
2022-11-30T21:43:04.084Z,83.27
2022-11-30T21:46:09.746Z,84.00
2022-11-30T21:49:13.025Z,93.63
2022-11-30T21:52:15.895Z,94.33
2022-11-30T21:55:20.222Z,87.70
2022-11-30T21:58:23.435Z,89.63
2022-11-30T22:01:29.337Z,96.57
2022-11-30T22:04:37.406Z,87.20
2022-11-30T22:07:40.349Z,84.80
2022-11-30T22:10:44.644Z,94.37
2022-11-30T22:13:50.956Z,93.50
2022-11-30T22:16:53.891Z,93.13
2022-11-30T22:19:56.810Z,88.83
2022-11-30T22:22:59.750Z,94.30
2022-11-30T22:26:13.047Z,85.23
2022-11-30T22:29:18.454Z,90.97
2022-11-30T22:32:22.199Z,83.33
2022-11-30T22:35:25.207Z,88.07
2022-11-30T22:38:28.111Z,78.60
2022-11-30T22:41:32.954Z,84.87
2022-11-30T22:44:35.903Z,82.77
2022-11-30T22:47:38.819Z,80.97
2022-11-30T22:50:41.751Z,81.30
2022-11-30T22:53:44.688Z,76.47
2022-11-30T22:56:49.004Z,76.07
2022-11-30T22:59:51.903Z,80.53
2022-11-30T23:02:54.821Z,84.63
2022-11-30T23:05:59.783Z,78.87
2022-11-30T23:09:03.066Z,84.93
2022-11-30T23:12:07.750Z,69.70
2022-11-30T23:15:11.430Z,77.87
2022-11-30T23:18:14.371Z,85.90
2022-11-30T23:21:19.241Z,90.07
2022-11-30T23:24:22.151Z,88.90
2022-11-30T23:27:26.392Z,76.97
2022-11-30T23:30:29.374Z,82.87
2022-11-30T23:33:32.229Z,83.33
2022-11-30T23:36:36.212Z,84.73
2022-11-30T23:39:39.112Z,90.77
2022-11-30T23:42:43.394Z,84.00
2022-11-30T23:45:46.295Z,89.40
2022-11-30T23:48:49.615Z,86.57
2022-11-30T23:51:52.535Z,91.20
2022-11-30T23:54:55.459Z,92.13
2022-11-30T23:57:59.667Z,91.07
